createdAt,value
2019-03-30T00:02:36.990Z,101690.71
2019-03-30T00:05:59.010Z,101682.77
2019-03-30T00:09:15.420Z,101680.83
2019-03-30T00:12:55.584Z,101677.10
2019-03-30T00:16:00.617Z,101681.22
2019-03-30T00:23:19.937Z,101670.17
2019-03-30T00:26:37.399Z,101671.30
2019-03-30T00:30:04.572Z,101670.08
2019-03-30T00:40:07.600Z,101671.75
2019-03-30T00:43:13.426Z,101669.30
2019-03-30T00:50:38.922Z,101659.92
2019-03-30T00:57:37.919Z,101661.91
2019-03-30T01:00:33.471Z,101655.59
2019-03-30T01:03:16.787Z,101650.63
2019-03-30T01:06:13.547Z,101650.92
2019-03-30T01:09:06.582Z,101638.22
2019-03-30T01:12:02.925Z,101640.98
2019-03-30T01:14:56.032Z,101641.45
2019-03-30T01:21:10.899Z,101634.70
2019-03-30T01:24:02.847Z,101635.19
2019-03-30T01:26:40.046Z,101634.21
2019-03-30T01:29:37.273Z,101634.97
2019-03-30T01:35:55.674Z,101634.21
2019-03-30T01:38:34.903Z,101625.81
2019-03-30T01:41:11.032Z,101621.16
2019-03-30T01:54:40.569Z,101611.28
2019-03-30T01:57:33.861Z,101613.07
2019-03-30T02:00:12.422Z,101611.20
2019-03-30T02:02:57.670Z,101601.83
2019-03-30T02:05:40.426Z,101596.28
2019-03-30T02:08:14.015Z,101587.48
2019-03-30T02:10:48.625Z,101598.75
2019-03-30T02:13:19.228Z,101590.73
2019-03-30T02:16:00.680Z,101587.23
2019-03-30T02:18:31.827Z,101584.58
2019-03-30T02:21:02.370Z,101580.48
2019-03-30T02:23:35.525Z,101575.52
2019-03-30T02:26:15.645Z,101575.42
2019-03-30T02:28:47.946Z,101570.31
2019-03-30T02:31:22.503Z,101576.62
2019-03-30T02:33:58.364Z,101568.45
2019-03-30T02:36:37.050Z,101572.97
2019-03-30T02:39:38.959Z,101567.76
2019-03-30T02:42:12.871Z,101565.87
2019-03-30T02:44:44.715Z,101564.73
2019-03-30T02:47:19.990Z,101560.42
2019-03-30T02:49:53.043Z,101563.68
2019-03-30T02:52:25.206Z,101563.30
2019-03-30T02:54:57.891Z,101557.13
2019-03-30T02:57:31.660Z,101556.27
2019-03-30T03:00:02.457Z,101558.68
2019-03-30T03:02:33.802Z,101557.44
2019-03-30T03:05:03.828Z,101556.38
2019-03-30T03:07:33.922Z,101553.99
2019-03-30T03:10:08.115Z,101554.12
2019-03-30T03:12:39.445Z,101549.27
2019-03-30T03:15:11.533Z,101548.51
2019-03-30T03:17:45.967Z,101540.33
2019-03-30T03:20:16.196Z,101543.11
2019-03-30T03:22:46.502Z,101539.09
2019-03-30T03:25:16.530Z,101534.05
2019-03-30T03:27:46.946Z,101535.61
2019-03-30T03:30:17.567Z,101530.27
2019-03-30T03:32:49.649Z,101529.08
2019-03-30T03:35:22.238Z,101530.56
2019-03-30T03:37:52.497Z,101527.42
2019-03-30T03:40:22.308Z,101527.84
2019-03-30T03:42:52.651Z,101528.11
2019-03-30T03:45:24.290Z,101529.81
2019-03-30T03:47:55.138Z,101522.19
2019-03-30T03:50:47.767Z,101520.53
2019-03-30T03:53:18.170Z,101516.69
2019-03-30T03:55:48.501Z,101515.36
2019-03-30T03:58:19.260Z,101514.87
2019-03-30T04:00:52.111Z,101512.22
2019-03-30T04:03:23.969Z,101510.60
2019-03-30T04:05:59.682Z,101505.95
2019-03-30T04:08:30.389Z,101504.56
2019-03-30T04:11:00.648Z,101502.84
2019-03-30T04:13:32.744Z,101498.84
2019-03-30T04:16:06.528Z,101492.70
2019-03-30T04:18:38.057Z,101499.71
2019-03-30T04:21:10.781Z,101497.25
2019-03-30T04:23:40.565Z,101498.25
2019-03-30T04:26:11.458Z,101492.56
2019-03-30T04:28:44.024Z,101491.14
2019-03-30T04:31:13.767Z,101496.35
2019-03-30T04:33:45.331Z,101495.31
2019-03-30T04:36:22.618Z,101488.34
2019-03-30T04:38:52.582Z,101488.30
2019-03-30T04:41:24.302Z,101485.74
2019-03-30T04:43:54.348Z,101478.53
2019-03-30T04:46:24.818Z,101471.03
2019-03-30T04:48:55.384Z,101474.13
2019-03-30T04:51:29.640Z,101471.77
2019-03-30T04:53:59.873Z,101473.13
2019-03-30T04:56:30.739Z,101470.67
2019-03-30T04:59:00.697Z,101464.17
2019-03-30T05:01:30.535Z,101456.16
2019-03-30T05:04:00.474Z,101458.13
2019-03-30T05:06:31.003Z,101451.86
2019-03-30T05:09:00.996Z,101458.88
2019-03-30T05:11:30.819Z,101457.39
2019-03-30T05:14:00.842Z,101451.93
2019-03-30T05:16:30.944Z,101458.91
2019-03-30T05:19:00.819Z,101451.93
2019-03-30T05:21:31.285Z,101458.62
2019-03-30T05:24:02.009Z,101456.61
2019-03-30T05:26:33.303Z,101457.94
2019-03-30T05:29:03.110Z,101455.81
2019-03-30T05:31:33.044Z,101455.52
2019-03-30T05:34:03.383Z,101457.05
2019-03-30T05:36:33.839Z,101457.63
2019-03-30T05:39:05.234Z,101450.16
2019-03-30T05:41:35.587Z,101454.05
2019-03-30T05:44:05.584Z,101448.48
2019-03-30T05:46:36.141Z,101442.97
2019-03-30T05:49:07.676Z,101446.36
2019-03-30T05:51:37.686Z,101445.73
2019-03-30T05:54:07.625Z,101440.47
2019-03-30T05:56:37.604Z,101438.03
2019-03-30T05:59:07.603Z,101441.55
2019-03-30T06:01:38.608Z,101444.57
2019-03-30T06:04:09.024Z,101442.96
2019-03-30T06:06:45.168Z,101433.73
2019-03-30T06:09:15.448Z,101444.95
2019-03-30T06:11:45.491Z,101435.20
2019-03-30T06:14:17.600Z,101433.09
2019-03-30T06:16:47.978Z,101433.64
2019-03-30T06:19:18.186Z,101435.03
2019-03-30T06:22:05.112Z,101435.42
2019-03-30T06:25:01.029Z,101431.17
2019-03-30T06:27:35.578Z,101425.23
2019-03-30T06:31:18.586Z,101431.95
2019-03-30T06:33:51.316Z,101425.52
2019-03-30T06:36:41.805Z,101423.78
2019-03-30T06:39:25.434Z,101425.78
2019-03-30T06:42:00.414Z,101435.92
2019-03-30T06:44:32.894Z,101428.77
2019-03-30T06:51:42.171Z,101440.34
2019-03-30T08:10:04.757Z,101403.72
2019-03-30T08:13:02.025Z,101405.58
2019-03-30T08:16:17.359Z,101403.56
2019-03-30T08:19:42.994Z,101401.11
2019-03-30T08:22:58.227Z,101392.31
2019-03-30T08:25:35.865Z,101393.90
2019-03-30T08:28:22.440Z,101395.52
2019-03-30T08:39:03.329Z,101400.70
2019-03-30T08:42:29.191Z,101391.23
2019-03-30T09:05:48.219Z,101382.77
2019-03-30T09:08:24.439Z,101377.68
2019-03-30T09:11:16.632Z,101378.49
2019-03-30T09:14:21.609Z,101375.66
2019-03-30T09:17:14.569Z,101374.56
2019-03-30T09:20:09.942Z,101371.41
2019-03-30T09:22:44.431Z,101367.94
2019-03-30T09:25:16.416Z,101371.81
2019-03-30T09:27:47.371Z,101380.08
2019-03-30T09:30:19.245Z,101368.79
2019-03-30T09:32:50.836Z,101362.87
2019-03-30T09:35:30.732Z,101359.55
2019-03-30T09:38:03.820Z,101356.34
2019-03-30T09:40:41.794Z,101354.95
2019-03-30T09:43:12.084Z,101353.67
2019-03-30T09:45:49.482Z,101354.66
2019-03-30T09:48:21.676Z,101351.38
2019-03-30T09:50:53.066Z,101346.06
2019-03-30T09:53:25.314Z,101345.54
2019-03-30T09:55:56.719Z,101343.71
2019-03-30T09:58:47.101Z,101344.86
2019-03-30T10:01:21.258Z,101337.72
2019-03-30T10:03:52.982Z,101331.58
2019-03-30T10:06:33.913Z,101333.42
2019-03-30T10:08:57.836Z,101330.07
2019-03-30T10:11:48.448Z,101329.88
2019-03-30T10:14:24.008Z,101330.05
2019-03-30T10:17:01.012Z,101320.54
2019-03-30T10:19:31.882Z,101324.73
2019-03-30T10:22:01.791Z,101324.22
2019-03-30T10:24:37.888Z,101324.67
2019-03-30T10:27:03.983Z,101314.50
2019-03-30T10:29:34.005Z,101313.93
2019-03-30T10:32:04.010Z,101309.73
2019-03-30T10:34:34.088Z,101305.86
2019-03-30T10:37:04.282Z,101309.28
2019-03-30T10:39:37.705Z,101300.05
2019-03-30T10:42:10.077Z,101302.34
2019-03-30T10:44:46.650Z,101303.63
2019-03-30T10:47:21.010Z,101303.40
2019-03-30T10:49:51.749Z,101297.95
2019-03-30T10:52:21.988Z,101292.61
2019-03-30T10:54:53.369Z,101287.42
2019-03-30T10:57:32.445Z,101288.83
2019-03-30T11:00:15.578Z,101285.96
2019-03-30T11:03:17.124Z,101280.45
2019-03-30T11:06:18.439Z,101283.94
2019-03-30T11:08:49.163Z,101282.55
2019-03-30T11:11:23.242Z,101264.97
2019-03-30T11:13:57.006Z,101262.31
2019-03-30T11:16:28.308Z,101264.39
2019-03-30T11:18:58.811Z,101262.73
2019-03-30T11:21:33.781Z,101258.19
2019-03-30T11:24:09.487Z,101252.02
2019-03-30T11:26:49.963Z,101256.30
2019-03-30T11:29:24.771Z,101256.78
2019-03-30T11:32:15.599Z,101248.77
2019-03-30T11:34:53.649Z,101256.08
2019-03-30T11:37:24.643Z,101255.72
2019-03-30T11:39:55.399Z,101248.09
2019-03-30T11:42:38.443Z,101243.87
2019-03-30T11:45:11.422Z,101238.88
2019-03-30T11:47:55.982Z,101236.48
2019-03-30T11:50:29.046Z,101238.14
2019-03-30T11:52:59.999Z,101246.42
2019-03-30T11:55:30.134Z,101237.70
2019-03-30T11:58:00.363Z,101231.56
2019-03-30T12:00:30.384Z,101234.73
2019-03-30T12:03:00.978Z,101229.27
2019-03-30T12:05:32.017Z,101234.38
2019-03-30T12:08:03.429Z,101232.50
2019-03-30T12:10:33.491Z,101230.77
2019-03-30T12:13:03.654Z,101230.79
2019-03-30T12:15:33.854Z,101226.19
2019-03-30T12:18:03.847Z,101227.00
2019-03-30T12:20:33.948Z,101209.16
2019-03-30T12:23:03.847Z,101214.84
2019-03-30T12:25:36.111Z,101211.99
2019-03-30T12:28:09.641Z,101206.57
2019-03-30T12:30:41.291Z,101216.77
2019-03-30T12:33:12.523Z,101218.42
2019-03-30T12:35:43.681Z,101208.02
2019-03-30T12:38:14.826Z,101206.52
2019-03-30T12:40:44.862Z,101195.43
2019-03-30T12:43:24.682Z,101193.75
2019-03-30T12:46:00.415Z,101188.23
2019-03-30T12:48:37.604Z,101200.25
2019-03-30T12:51:10.058Z,101187.97
2019-03-30T12:53:50.355Z,101188.36
2019-03-30T12:56:22.307Z,101192.47
2019-03-30T12:58:58.090Z,101191.04
2019-03-30T13:02:02.080Z,101185.06
2019-03-30T13:04:39.655Z,101183.14
2019-03-30T13:07:24.254Z,101185.91
2019-03-30T13:09:54.125Z,101192.70
2019-03-30T13:15:26.793Z,101186.67
2019-03-30T13:18:02.574Z,101177.13
2019-03-30T13:21:00.743Z,101176.59
2019-03-30T13:23:30.920Z,101178.14
2019-03-30T13:26:27.742Z,101174.48
2019-03-30T13:29:30.673Z,101185.67
2019-03-30T13:32:18.680Z,101169.53
2019-03-30T13:34:49.846Z,101176.69
2019-03-30T13:37:20.599Z,101183.02
2019-03-30T13:46:54.324Z,101164.03
2019-03-30T13:49:30.162Z,101164.97
2019-03-30T13:52:26.877Z,101159.50
2019-03-30T13:54:56.875Z,101162.16
2019-03-30T13:57:27.540Z,101156.19
2019-03-30T13:59:57.487Z,101158.86
2019-03-30T14:02:28.348Z,101160.42
2019-03-30T14:04:58.303Z,101148.14
2019-03-30T14:07:28.214Z,101159.07
2019-03-30T14:09:58.217Z,101157.45
2019-03-30T14:12:28.217Z,101156.03
2019-03-30T14:14:58.154Z,101148.69
2019-03-30T14:17:28.040Z,101153.38
2019-03-30T14:19:58.062Z,101146.27
2019-03-30T14:22:28.050Z,101154.67
2019-03-30T14:24:58.106Z,101154.75
2019-03-30T14:27:28.115Z,101153.84
2019-03-30T14:29:57.979Z,101156.95
2019-03-30T14:32:28.098Z,101155.64
2019-03-30T14:34:57.964Z,101144.02
2019-03-30T14:37:27.979Z,101147.68
2019-03-30T14:39:58.018Z,101154.45
2019-03-30T14:42:27.926Z,101145.09
2019-03-30T14:44:57.946Z,101146.47
2019-03-30T14:47:27.982Z,101141.20
2019-03-30T14:49:58.267Z,101137.34
2019-03-30T14:52:28.260Z,101135.44
2019-03-30T14:54:58.321Z,101130.95
2019-03-30T14:57:28.589Z,101130.26
2019-03-30T14:59:58.605Z,101128.84
2019-03-30T15:02:28.527Z,101127.08
2019-03-30T15:05:00.953Z,101133.59
2019-03-30T15:07:30.312Z,101136.78
2019-03-30T15:10:01.527Z,101137.97
2019-03-30T15:12:31.848Z,101134.09
2019-03-30T15:15:01.803Z,101137.73
2019-03-30T15:17:31.762Z,101128.37
2019-03-30T15:20:01.638Z,101130.28
2019-03-30T15:22:31.602Z,101123.16
2019-03-30T15:25:01.568Z,101126.84
2019-03-30T15:27:31.469Z,101130.39
2019-03-30T15:30:02.800Z,101125.63
2019-03-30T15:32:33.091Z,101119.95
2019-03-30T15:35:04.149Z,101113.23
2019-03-30T15:37:34.191Z,101121.37
2019-03-30T15:40:04.234Z,101120.86
2019-03-30T15:42:34.463Z,101116.13
2019-03-30T15:45:05.437Z,101123.19
2019-03-30T15:47:35.420Z,101120.45
2019-03-30T15:50:05.545Z,101118.63
2019-03-30T15:52:35.463Z,101108.20
2019-03-30T15:55:05.623Z,101108.17
2019-03-30T15:57:35.647Z,101109.62
2019-03-30T16:00:07.100Z,101108.84
2019-03-30T16:02:37.538Z,101101.73
2019-03-30T16:05:10.871Z,101110.73
2019-03-30T16:07:41.287Z,101112.55
2019-03-30T16:10:12.998Z,101108.47
2019-03-30T16:12:43.095Z,101104.59
2019-03-30T16:15:13.667Z,101106.27
2019-03-30T16:17:44.540Z,101099.70
2019-03-30T16:20:15.537Z,101115.13
2019-03-30T16:22:45.808Z,101107.87
2019-03-30T16:25:17.440Z,101106.52
2019-03-30T16:27:47.524Z,101106.19
2019-03-30T16:30:17.842Z,101107.71
2019-03-30T16:32:47.852Z,101106.11
2019-03-30T16:35:18.100Z,101107.11
2019-03-30T16:37:48.321Z,101109.02
2019-03-30T16:40:18.441Z,101110.14
2019-03-30T16:42:48.486Z,101108.97
2019-03-30T16:45:18.576Z,101109.86
2019-03-30T16:47:50.767Z,101111.75
2019-03-30T16:50:25.288Z,101107.41
2019-03-30T16:52:57.497Z,101109.00
2019-03-30T16:55:34.639Z,101109.31
2019-03-30T16:58:07.747Z,101106.58
2019-03-30T17:00:55.337Z,101113.61
2019-03-30T17:03:14.803Z,101104.09
2019-03-30T17:05:59.113Z,101092.95
2019-03-30T17:08:40.251Z,101093.73
2019-03-30T17:18:42.171Z,101097.09
2019-03-30T17:21:22.831Z,101096.48
2019-03-30T17:23:55.211Z,101105.09
2019-03-30T17:26:30.358Z,101107.72
2019-03-30T17:29:04.078Z,101105.55
2019-03-30T17:31:57.070Z,101109.32
2019-03-30T17:34:29.653Z,101104.18
2019-03-30T17:37:00.049Z,101104.84
2019-03-30T17:39:30.324Z,101108.41
2019-03-30T17:42:01.439Z,101107.14
2019-03-30T17:44:32.403Z,101104.98
2019-03-30T17:47:03.739Z,101110.25
2019-03-30T17:49:36.112Z,101110.49
2019-03-30T17:52:06.415Z,101114.08
2019-03-30T17:54:39.704Z,101114.90
2019-03-30T17:57:08.703Z,101112.07
2019-03-30T17:59:40.760Z,101119.77
2019-03-30T18:02:11.178Z,101127.77
2019-03-30T18:04:41.384Z,101130.66
2019-03-30T18:07:13.634Z,101126.70
2019-03-30T18:09:43.865Z,101124.82
2019-03-30T18:12:14.163Z,101128.15
2019-03-30T18:14:44.390Z,101131.02
2019-03-30T18:17:14.773Z,101142.77
2019-03-30T18:19:45.186Z,101138.20
2019-03-30T18:22:17.439Z,101142.37
2019-03-30T18:24:47.642Z,101145.03
2019-03-30T18:27:17.757Z,101148.61
2019-03-30T18:29:48.164Z,101160.73
2019-03-30T18:32:18.531Z,101163.19
2019-03-30T18:34:48.817Z,101163.80
2019-03-30T18:37:18.964Z,101170.27
2019-03-30T18:39:49.179Z,101171.02
2019-03-30T18:42:19.437Z,101167.38
2019-03-30T18:44:49.819Z,101167.38
2019-03-30T18:47:19.977Z,101169.70
2019-03-30T18:49:52.143Z,101166.91
2019-03-30T18:52:22.422Z,101172.08
2019-03-30T18:54:52.505Z,101171.70
2019-03-30T18:57:22.751Z,101175.09
2019-03-30T18:59:53.844Z,101176.66
2019-03-30T19:02:24.034Z,101185.14
2019-03-30T19:04:54.446Z,101182.85
2019-03-30T19:07:24.842Z,101191.77
2019-03-30T19:09:55.061Z,101190.83
2019-03-30T19:12:25.370Z,101188.53
2019-03-30T19:14:55.537Z,101194.86
2019-03-30T19:17:25.722Z,101195.68
2019-03-30T19:19:55.925Z,101198.68
2019-03-30T19:22:26.237Z,101206.48
2019-03-30T19:24:56.484Z,101199.28
2019-03-30T19:27:26.723Z,101201.29
2019-03-30T19:29:56.925Z,101206.06
2019-03-30T19:32:27.061Z,101200.86
2019-03-30T19:34:57.285Z,101213.66
2019-03-30T19:37:27.543Z,101205.30
2019-03-30T19:39:57.983Z,101204.91
2019-03-30T19:42:28.157Z,101205.91
2019-03-30T19:44:59.541Z,101205.55
2019-03-30T19:47:29.898Z,101208.00
2019-03-30T19:50:00.376Z,101210.32
2019-03-30T19:52:39.731Z,101205.62
2019-03-30T19:55:02.517Z,101207.73
2019-03-30T19:57:32.721Z,101208.97
2019-03-30T20:00:03.039Z,101213.19
2019-03-30T20:02:33.677Z,101209.48
2019-03-30T20:05:04.063Z,101216.95
2019-03-30T20:07:34.265Z,101213.25
2019-03-30T20:10:04.752Z,101213.63
2019-03-30T20:12:35.383Z,101218.55
2019-03-30T20:15:06.102Z,101221.75
2019-03-30T20:17:36.435Z,101220.99
2019-03-30T20:20:07.242Z,101219.33
2019-03-30T20:22:37.437Z,101230.11
2019-03-30T20:25:08.483Z,101228.59
2019-03-30T20:27:38.678Z,101235.67
2019-03-30T20:30:11.223Z,101236.95
2019-03-30T20:32:43.158Z,101232.79
2019-03-30T20:35:14.534Z,101233.56
2019-03-30T20:37:45.735Z,101233.27
2019-03-30T20:40:15.999Z,101231.58
2019-03-30T20:42:46.182Z,101234.52
2019-03-30T20:45:17.443Z,101231.02
2019-03-30T20:47:48.149Z,101231.39
2019-03-30T20:50:18.440Z,101234.41
2019-03-30T20:52:48.594Z,101228.50
2019-03-30T20:55:18.948Z,101223.84
2019-03-30T20:57:49.198Z,101226.58
2019-03-30T21:00:20.301Z,101228.35
2019-03-30T21:02:50.462Z,101223.60
2019-03-30T21:05:20.723Z,101230.27
2019-03-30T21:07:50.939Z,101231.00
2019-03-30T21:10:23.643Z,101228.64
2019-03-30T21:12:53.877Z,101224.95
2019-03-30T21:15:24.011Z,101228.56
2019-03-30T21:17:55.104Z,101228.16
2019-03-30T21:20:25.262Z,101227.84
2019-03-30T21:22:55.862Z,101221.83
2019-03-30T21:25:26.038Z,101227.38
2019-03-30T21:27:56.135Z,101231.83
2019-03-30T21:30:26.345Z,101222.05
2019-03-30T21:32:56.343Z,101222.08
2019-03-30T21:35:27.366Z,101221.86
2019-03-30T21:37:58.693Z,101226.07
2019-03-30T21:40:28.982Z,101228.13
2019-03-30T21:42:59.537Z,101228.35
2019-03-30T21:45:30.638Z,101227.48
2019-03-30T21:48:00.937Z,101234.86
2019-03-30T21:50:31.808Z,101230.55
2019-03-30T21:53:01.689Z,101231.28
2019-03-30T21:55:32.027Z,101227.42
2019-03-30T21:58:01.952Z,101226.47
2019-03-30T22:00:36.738Z,101218.59
2019-03-30T22:03:08.104Z,101219.20
2019-03-30T22:05:39.069Z,101233.86
2019-03-30T22:08:09.221Z,101232.63
2019-03-30T22:10:40.032Z,101239.66
2019-03-30T22:13:10.074Z,101238.22
2019-03-30T22:15:39.973Z,101230.23
2019-03-30T22:18:10.752Z,101237.27
2019-03-30T22:20:40.623Z,101233.63
2019-03-30T22:23:10.663Z,101228.66
2019-03-30T22:25:40.692Z,101232.79
2019-03-30T22:28:10.547Z,101242.57
2019-03-30T22:30:40.873Z,101241.91
2019-03-30T22:33:10.729Z,101240.22
2019-03-30T22:35:40.715Z,101236.52
2019-03-30T22:38:10.591Z,101240.71
2019-03-30T22:40:44.038Z,101230.80
2019-03-30T22:43:13.997Z,101229.99
2019-03-30T22:45:46.987Z,101231.09
2019-03-30T22:48:16.846Z,101234.42
2019-03-30T22:50:46.632Z,101235.61
2019-03-30T22:53:16.670Z,101234.83
2019-03-30T22:55:46.718Z,101233.48
2019-03-30T22:58:16.837Z,101231.27
2019-03-30T23:01:07.145Z,101235.61
2019-03-30T23:03:37.249Z,101233.31
2019-03-30T23:06:07.088Z,101235.14
2019-03-30T23:08:36.969Z,101231.61
2019-03-30T23:11:07.007Z,101225.77
2019-03-30T23:13:36.897Z,101221.91
2019-03-30T23:16:07.677Z,101218.15
2019-03-30T23:18:37.557Z,101217.42
2019-03-30T23:21:08.717Z,101227.75
2019-03-30T23:23:38.701Z,101231.92
2019-03-30T23:26:08.650Z,101236.03
2019-03-30T23:28:38.642Z,101236.87
2019-03-30T23:31:10.419Z,101235.15
2019-03-30T23:33:40.337Z,101238.27
2019-03-30T23:36:10.188Z,101237.34
2019-03-30T23:38:40.004Z,101241.86
2019-03-30T23:41:09.972Z,101249.19
2019-03-30T23:43:40.382Z,101240.44
2019-03-30T23:46:10.238Z,101242.44
2019-03-30T23:48:40.138Z,101245.55
2019-03-30T23:51:10.965Z,101249.08
2019-03-30T23:53:40.868Z,101247.45
2019-03-30T23:56:24.157Z,101246.25
2019-03-30T23:58:54.272Z,101251.05
